Airfield :
LOGIN :

Register | Disclaimer

   EN    FR    IT 

 










Legend :    VFR   Marginal VFR   IFR   Intensive IFR   Very Intensive IFR
Visi :
Ceiling :
>= 8 km
>= 3000ft
5 to 8 km
1000 to 3000 ft
1500m to 5 km
500 to 1000 ft
800 to 1500m
200 to 500 ft
< 800m
< 200 ft
Symbols :   Thunderstorms  Fog  Heavy snow  Heavy precipitations  Wind > 20 kt
SIGMETs :     Misc.  Thunderstorms  Icing  Turbulence  Mountain Waves  Volcanic Ashes







- Airport Elevation : 1090 ft
- IATA code : CFE
- Download approach charts


LFLC - Clermont-Ferrand Auvergne

EXPIRED METARs :
  • 241430Z AUTO 05006KT 010V100 CAVOK 28/15 Q1018 TEMPO FEW050CB
  • 241400Z AUTO VRB04KT CAVOK 27/15 Q1018 NOSIG
  • 241330Z AUTO VRB04KT CAVOK 26/15 Q1019 NOSIG
  • 241300Z AUTO VRB04KT CAVOK 26/15 Q1019 NOSIG
  • 241230Z AUTO VRB03KT CAVOK 25/14 Q1019 NOSIG
  • 241200Z AUTO VRB02KT CAVOK 24/15 Q1020 NOSIG

Expired Forecast.
ATIS : +33 4 73 62 74 38
No reported NOTAMs for that airfield.
1 SIGMET reported for the Marseille FIR (LFMM) :
 
Embedded thunderstorms
LFMM SIGMET 12 VALID 242345/250315 LFPW
LFMM MARSEILLE FIR/UIR EMBD TS OBS AT 2345Z WI N4630 E00615 - N4630 E00700 - N4445 E00700 - N4330 E00430 - N4500 E00330 TOP FL400 MOV E 25KT NC=



MET'MAP, your aeronautical weather chart ! - Copyright ORBIFLY December 2007 - Disclaimer

ORBIFLY MET'MAP TEAM :

Programming & Development : Alexandra Zaïnal
Concept & Development : Baudouin d'Aumeries
Co-Development & Prog : Marc-Olivier Méhu
Technical & hardware support : Manuel Goepfert

Contact : metmap@orbifly.com




SOURCES & CREDITS :

   NOAA